sensor_id;sensor_type;location;lat;lon;timestamp;P1;durP1;ratioP1;P2;durP2;ratioP2
60917;SDS011;46792;38.854;-9.384;2023-02-15T00:01:38;26.55;;;7.97;;
60917;SDS011;46792;38.854;-9.384;2023-02-15T00:03:39;40.70;;;8.80;;
60917;SDS011;46792;38.854;-9.384;2023-02-15T00:05:40;33.00;;;8.15;;
60917;SDS011;46792;38.854;-9.384;2023-02-15T00:07:40;29.33;;;7.65;;
60917;SDS011;46792;38.854;-9.384;2023-02-15T00:09:41;33.80;;;8.30;;
60917;SDS011;46792;38.854;-9.384;2023-02-15T00:11:42;22.33;;;7.35;;
60917;SDS011;46792;38.854;-9.384;2023-02-15T00:13:45;30.58;;;7.53;;
60917;SDS011;46792;38.854;-9.384;2023-02-15T00:15:45;36.35;;;9.27;;
60917;SDS011;46792;38.854;-9.384;2023-02-15T00:17:46;17.63;;;6.25;;
60917;SDS011;46792;38.854;-9.384;2023-02-15T00:19:46;28.70;;;7.68;;
60917;SDS011;46792;38.854;-9.384;2023-02-15T00:22:02;25.33;;;7.15;;
60917;SDS011;46792;38.854;-9.384;2023-02-15T00:24:03;35.75;;;7.97;;
60917;SDS011;46792;38.854;-9.384;2023-02-15T00:26:12;24.05;;;8.07;;
60917;SDS011;46792;38.854;-9.384;2023-02-15T00:28:16;31.98;;;7.32;;
60917;SDS011;46792;38.854;-9.384;2023-02-15T00:30:32;27.15;;;8.23;;
60917;SDS011;46792;38.854;-9.384;2023-02-15T00:32:51;22.00;;;6.85;;
60917;SDS011;46792;38.854;-9.384;2023-02-15T00:34:51;30.23;;;6.95;;
60917;SDS011;46792;38.854;-9.384;2023-02-15T00:36:52;31.55;;;6.95;;
60917;SDS011;46792;38.854;-9.384;2023-02-15T00:38:53;21.10;;;5.38;;
60917;SDS011;46792;38.854;-9.384;2023-02-15T00:40:54;28.50;;;4.75;;
60917;SDS011;46792;38.854;-9.384;2023-02-15T00:42:55;27.77;;;6.40;;
60917;SDS011;46792;38.854;-9.384;2023-02-15T00:44:56;25.73;;;5.97;;
60917;SDS011;46792;38.854;-9.384;2023-02-15T00:46:57;25.27;;;5.75;;
60917;SDS011;46792;38.854;-9.384;2023-02-15T00:48:57;23.73;;;4.05;;
60917;SDS011;46792;38.854;-9.384;2023-02-15T00:50:59;23.10;;;4.80;;
60917;SDS011;46792;38.854;-9.384;2023-02-15T00:53:00;14.45;;;4.63;;
60917;SDS011;46792;38.854;-9.384;2023-02-15T00:55:01;27.40;;;5.70;;
60917;SDS011;46792;38.854;-9.384;2023-02-15T00:57:01;14.30;;;4.03;;
60917;SDS011;46792;38.854;-9.384;2023-02-15T00:59:02;14.95;;;3.90;;
60917;SDS011;46792;38.854;-9.384;2023-02-15T01:01:04;18.42;;;4.68;;
60917;SDS011;46792;38.854;-9.384;2023-02-15T01:03:06;17.25;;;4.75;;
60917;SDS011;46792;38.854;-9.384;2023-02-15T01:05:25;20.55;;;4.00;;
60917;SDS011;46792;38.854;-9.384;2023-02-15T01:07:26;23.08;;;4.22;;
60917;SDS011;46792;38.854;-9.384;2023-02-15T01:11:45;19.52;;;4.50;;
60917;SDS011;46792;38.854;-9.384;2023-02-15T01:16:05;13.27;;;3.85;;
60917;SDS011;46792;38.854;-9.384;2023-02-15T01:18:25;12.38;;;2.78;;
60917;SDS011;46792;38.854;-9.384;2023-02-15T01:20:26;18.05;;;3.90;;
60917;SDS011;46792;38.854;-9.384;2023-02-15T01:22:28;27.92;;;4.28;;
60917;SDS011;46792;38.854;-9.384;2023-02-15T01:24:28;23.67;;;4.05;;
60917;SDS011;46792;38.854;-9.384;2023-02-15T01:26:47;20.98;;;4.10;;
60917;SDS011;46792;38.854;-9.384;2023-02-15T01:28:48;21.73;;;3.22;;
60917;SDS011;46792;38.854;-9.384;2023-02-15T01:30:50;26.98;;;4.38;;
60917;SDS011;46792;38.854;-9.384;2023-02-15T01:32:50;20.75;;;3.15;;
60917;SDS011;46792;38.854;-9.384;2023-02-15T01:35:10;16.42;;;3.67;;
60917;SDS011;46792;38.854;-9.384;2023-02-15T01:37:14;25.65;;;3.63;;
60917;SDS011;46792;38.854;-9.384;2023-02-15T01:39:15;23.65;;;4.40;;
60917;SDS011;46792;38.854;-9.384;2023-02-15T01:41:34;12.35;;;2.88;;
60917;SDS011;46792;38.854;-9.384;2023-02-15T01:43:42;19.45;;;3.65;;
60917;SDS011;46792;38.854;-9.384;2023-02-15T01:45:45;27.15;;;4.47;;
60917;SDS011;46792;38.854;-9.384;2023-02-15T01:47:52;26.45;;;2.83;;
60917;SDS011;46792;38.854;-9.384;2023-02-15T01:50:03;21.85;;;3.38;;
60917;SDS011;46792;38.854;-9.384;2023-02-15T01:52:24;18.88;;;3.10;;
60917;SDS011;46792;38.854;-9.384;2023-02-15T01:54:29;25.02;;;4.22;;
60917;SDS011;46792;38.854;-9.384;2023-02-15T01:56:33;18.42;;;3.70;;
60917;SDS011;46792;38.854;-9.384;2023-02-15T01:58:36;29.38;;;3.83;;
60917;SDS011;46792;38.854;-9.384;2023-02-15T02:00:38;27.42;;;3.22;;
60917;SDS011;46792;38.854;-9.384;2023-02-15T02:02:39;30.52;;;4.10;;
60917;SDS011;46792;38.854;-9.384;2023-02-15T02:04:47;23.90;;;5.22;;
60917;SDS011;46792;38.854;-9.384;2023-02-15T02:06:52;24.35;;;5.03;;
60917;SDS011;46792;38.854;-9.384;2023-02-15T02:08:54;26.33;;;3.92;;
60917;SDS011;46792;38.854;-9.384;2023-02-15T02:10:56;23.10;;;4.22;;
60917;SDS011;46792;38.854;-9.384;2023-02-15T02:12:58;32.13;;;4.95;;
60917;SDS011;46792;38.854;-9.384;2023-02-15T02:15:01;32.38;;;4.53;;
60917;SDS011;46792;38.854;-9.384;2023-02-15T02:20:25;31.58;;;4.90;;
60917;SDS011;46792;38.854;-9.384;2023-02-15T02:22:28;20.10;;;4.35;;
60917;SDS011;46792;38.854;-9.384;2023-02-15T02:27:19;22.42;;;4.03;;
60917;SDS011;46792;38.854;-9.384;2023-02-15T02:34:40;16.90;;;4.53;;
60917;SDS011;46792;38.854;-9.384;2023-02-15T02:41:57;22.42;;;3.67;;
60917;SDS011;46792;38.854;-9.384;2023-02-15T02:44:17;25.27;;;4.40;;
60917;SDS011;46792;38.854;-9.384;2023-02-15T02:46:32;27.63;;;4.10;;
60917;SDS011;46792;38.854;-9.384;2023-02-15T02:48:39;18.48;;;4.55;;
60917;SDS011;46792;38.854;-9.384;2023-02-15T02:50:58;19.85;;;4.20;;
60917;SDS011;46792;38.854;-9.384;2023-02-15T02:53:18;23.67;;;4.80;;
60917;SDS011;46792;38.854;-9.384;2023-02-15T02:55:23;17.35;;;4.47;;
60917;SDS011;46792;38.854;-9.384;2023-02-15T02:57:32;20.15;;;4.25;;
60917;SDS011;46792;38.854;-9.384;2023-02-15T02:59:52;24.35;;;4.07;;
60917;SDS011;46792;38.854;-9.384;2023-02-15T03:02:23;20.55;;;3.90;;
60917;SDS011;46792;38.854;-9.384;2023-02-15T03:04:31;24.77;;;4.40;;
60917;SDS011;46792;38.854;-9.384;2023-02-15T03:06:38;18.33;;;4.78;;
60917;SDS011;46792;38.854;-9.384;2023-02-15T03:08:42;25.45;;;4.88;;
60917;SDS011;46792;38.854;-9.384;2023-02-15T03:10:51;19.75;;;4.60;;
60917;SDS011;46792;38.854;-9.384;2023-02-15T03:12:54;22.92;;;4.35;;
60917;SDS011;46792;38.854;-9.384;2023-02-15T03:14:56;12.02;;;3.85;;
60917;SDS011;46792;38.854;-9.384;2023-02-15T03:17:14;23.45;;;6.43;;
60917;SDS011;46792;38.854;-9.384;2023-02-15T03:19:32;29.45;;;8.40;;
60917;SDS011;46792;38.854;-9.384;2023-02-15T03:21:38;30.15;;;7.43;;
60917;SDS011;46792;38.854;-9.384;2023-02-15T03:23:53;23.55;;;7.55;;
60917;SDS011;46792;38.854;-9.384;2023-02-15T03:26:00;34.15;;;9.45;;
60917;SDS011;46792;38.854;-9.384;2023-02-15T03:28:09;33.28;;;8.25;;
60917;SDS011;46792;38.854;-9.384;2023-02-15T03:30:19;37.05;;;9.55;;
60917;SDS011;46792;38.854;-9.384;2023-02-15T03:32:40;31.90;;;9.30;;
60917;SDS011;46792;38.854;-9.384;2023-02-15T03:35:02;27.77;;;9.93;;
60917;SDS011;46792;38.854;-9.384;2023-02-15T03:37:16;27.13;;;7.82;;
60917;SDS011;46792;38.854;-9.384;2023-02-15T03:44:33;36.42;;;10.80;;
60917;SDS011;46792;38.854;-9.384;2023-02-15T03:46:51;34.20;;;9.02;;
60917;SDS011;46792;38.854;-9.384;2023-02-15T03:51:18;32.28;;;10.50;;
60917;SDS011;46792;38.854;-9.384;2023-02-15T03:53:49;36.05;;;9.55;;
60917;SDS011;46792;38.854;-9.384;2023-02-15T03:55:53;33.45;;;10.63;;
60917;SDS011;46792;38.854;-9.384;2023-02-15T03:57:55;43.25;;;11.02;;
60917;SDS011;46792;38.854;-9.384;2023-02-15T04:00:19;26.10;;;10.57;;
60917;SDS011;46792;38.854;-9.384;2023-02-15T04:05:02;26.85;;;9.32;;
60917;SDS011;46792;38.854;-9.384;2023-02-15T04:07:04;32.30;;;9.70;;
60917;SDS011;46792;38.854;-9.384;2023-02-15T04:09:07;31.70;;;9.80;;
60917;SDS011;46792;38.854;-9.384;2023-02-15T04:11:26;35.92;;;10.25;;
60917;SDS011;46792;38.854;-9.384;2023-02-15T04:13:30;35.97;;;10.38;;
60917;SDS011;46792;38.854;-9.384;2023-02-15T04:15:32;31.70;;;8.57;;
60917;SDS011;46792;38.854;-9.384;2023-02-15T04:17:51;21.38;;;8.85;;
60917;SDS011;46792;38.854;-9.384;2023-02-15T04:19:51;31.52;;;9.18;;
60917;SDS011;46792;38.854;-9.384;2023-02-15T04:22:14;31.08;;;7.82;;
60917;SDS011;46792;38.854;-9.384;2023-02-15T04:24:33;24.10;;;8.07;;
60917;SDS011;46792;38.854;-9.384;2023-02-15T04:27:13;37.42;;;9.23;;
60917;SDS011;46792;38.854;-9.384;2023-02-15T04:29:32;33.17;;;8.73;;
60917;SDS011;46792;38.854;-9.384;2023-02-15T04:31:33;36.97;;;8.48;;
60917;SDS011;46792;38.854;-9.384;2023-02-15T04:33:33;26.48;;;8.02;;
60917;SDS011;46792;38.854;-9.384;2023-02-15T04:35:35;29.10;;;8.85;;
60917;SDS011;46792;38.854;-9.384;2023-02-15T04:37:36;27.70;;;8.88;;
60917;SDS011;46792;38.854;-9.384;2023-02-15T04:39:38;28.75;;;8.00;;
60917;SDS011;46792;38.854;-9.384;2023-02-15T04:41:38;29.00;;;9.00;;
60917;SDS011;46792;38.854;-9.384;2023-02-15T04:43:39;24.15;;;8.18;;
60917;SDS011;46792;38.854;-9.384;2023-02-15T04:45:39;25.20;;;9.02;;
60917;SDS011;46792;38.854;-9.384;2023-02-15T04:47:40;29.13;;;8.45;;
60917;SDS011;46792;38.854;-9.384;2023-02-15T04:49:59;31.38;;;8.90;;
60917;SDS011;46792;38.854;-9.384;2023-02-15T04:52:00;30.85;;;9.02;;
60917;SDS011;46792;38.854;-9.384;2023-02-15T04:54:01;35.97;;;9.63;;
60917;SDS011;46792;38.854;-9.384;2023-02-15T04:56:01;31.70;;;8.15;;
60917;SDS011;46792;38.854;-9.384;2023-02-15T04:58:02;33.33;;;8.80;;
60917;SDS011;46792;38.854;-9.384;2023-02-15T05:00:03;25.00;;;8.52;;
60917;SDS011;46792;38.854;-9.384;2023-02-15T05:02:04;28.98;;;8.77;;
60917;SDS011;46792;38.854;-9.384;2023-02-15T05:04:05;33.47;;;10.93;;
60917;SDS011;46792;38.854;-9.384;2023-02-15T05:06:05;29.83;;;8.95;;
60917;SDS011;46792;38.854;-9.384;2023-02-15T05:08:06;31.92;;;10.18;;
60917;SDS011;46792;38.854;-9.384;2023-02-15T05:10:25;39.38;;;8.98;;
60917;SDS011;46792;38.854;-9.384;2023-02-15T05:12:26;33.05;;;9.35;;
60917;SDS011;46792;38.854;-9.384;2023-02-15T05:14:26;27.40;;;8.75;;
60917;SDS011;46792;38.854;-9.384;2023-02-15T05:16:27;27.67;;;9.18;;
60917;SDS011;46792;38.854;-9.384;2023-02-15T05:18:28;26.08;;;8.40;;
60917;SDS011;46792;38.854;-9.384;2023-02-15T05:20:28;32.10;;;10.15;;
60917;SDS011;46792;38.854;-9.384;2023-02-15T05:22:29;29.95;;;9.60;;
60917;SDS011;46792;38.854;-9.384;2023-02-15T05:30:19;31.10;;;7.65;;
60917;SDS011;46792;38.854;-9.384;2023-02-15T05:32:20;25.90;;;8.48;;
60917;SDS011;46792;38.854;-9.384;2023-02-15T05:34:20;24.48;;;7.50;;
60917;SDS011;46792;38.854;-9.384;2023-02-15T05:36:21;25.13;;;7.93;;
60917;SDS011;46792;38.854;-9.384;2023-02-15T05:38:22;22.25;;;7.65;;
60917;SDS011;46792;38.854;-9.384;2023-02-15T05:40:22;33.40;;;7.93;;
60917;SDS011;46792;38.854;-9.384;2023-02-15T05:42:23;26.35;;;7.95;;
60917;SDS011;46792;38.854;-9.384;2023-02-15T05:44:42;30.60;;;8.50;;
60917;SDS011;46792;38.854;-9.384;2023-02-15T05:46:43;30.13;;;7.38;;
60917;SDS011;46792;38.854;-9.384;2023-02-15T05:51:40;20.50;;;7.82;;
60917;SDS011;46792;38.854;-9.384;2023-02-15T05:53:41;30.23;;;8.07;;
60917;SDS011;46792;38.854;-9.384;2023-02-15T05:55:41;27.52;;;8.05;;
60917;SDS011;46792;38.854;-9.384;2023-02-15T05:57:42;23.50;;;8.07;;
60917;SDS011;46792;38.854;-9.384;2023-02-15T06:00:02;18.98;;;9.27;;
60917;SDS011;46792;38.854;-9.384;2023-02-15T06:02:14;23.77;;;7.60;;
60917;SDS011;46792;38.854;-9.384;2023-02-15T06:04:33;24.35;;;8.35;;
60917;SDS011;46792;38.854;-9.384;2023-02-15T06:06:33;19.67;;;7.75;;
60917;SDS011;46792;38.854;-9.384;2023-02-15T06:08:35;19.92;;;7.32;;
60917;SDS011;46792;38.854;-9.384;2023-02-15T06:10:36;32.70;;;7.40;;
60917;SDS011;46792;38.854;-9.384;2023-02-15T06:12:55;19.08;;;7.13;;
60917;SDS011;46792;38.854;-9.384;2023-02-15T06:14:56;19.60;;;7.03;;
60917;SDS011;46792;38.854;-9.384;2023-02-15T06:16:56;23.83;;;7.22;;
60917;SDS011;46792;38.854;-9.384;2023-02-15T06:18:57;24.27;;;7.82;;
60917;SDS011;46792;38.854;-9.384;2023-02-15T06:21:17;25.02;;;8.15;;
60917;SDS011;46792;38.854;-9.384;2023-02-15T06:23:18;28.45;;;8.38;;
60917;SDS011;46792;38.854;-9.384;2023-02-15T06:25:19;19.42;;;7.10;;
60917;SDS011;46792;38.854;-9.384;2023-02-15T06:27:20;16.65;;;6.32;;
60917;SDS011;46792;38.854;-9.384;2023-02-15T06:29:20;20.23;;;7.95;;
60917;SDS011;46792;38.854;-9.384;2023-02-15T06:31:21;18.92;;;8.15;;
60917;SDS011;46792;38.854;-9.384;2023-02-15T06:33:22;20.27;;;7.07;;
60917;SDS011;46792;38.854;-9.384;2023-02-15T06:35:23;23.95;;;7.32;;
60917;SDS011;46792;38.854;-9.384;2023-02-15T06:37:24;23.13;;;7.47;;
60917;SDS011;46792;38.854;-9.384;2023-02-15T06:39:24;22.02;;;6.60;;
60917;SDS011;46792;38.854;-9.384;2023-02-15T06:41:25;25.35;;;7.10;;
60917;SDS011;46792;38.854;-9.384;2023-02-15T06:43:44;21.63;;;8.05;;
60917;SDS011;46792;38.854;-9.384;2023-02-15T06:46:03;21.63;;;6.90;;
60917;SDS011;46792;38.854;-9.384;2023-02-15T06:48:04;23.67;;;7.18;;
60917;SDS011;46792;38.854;-9.384;2023-02-15T06:50:07;18.52;;;6.47;;
60917;SDS011;46792;38.854;-9.384;2023-02-15T06:52:08;22.45;;;7.18;;
60917;SDS011;46792;38.854;-9.384;2023-02-15T06:54:09;24.10;;;6.70;;
60917;SDS011;46792;38.854;-9.384;2023-02-15T06:56:10;25.30;;;7.45;;
60917;SDS011;46792;38.854;-9.384;2023-02-15T06:58:14;25.33;;;7.13;;
60917;SDS011;46792;38.854;-9.384;2023-02-15T07:00:14;17.63;;;6.57;;
60917;SDS011;46792;38.854;-9.384;2023-02-15T07:02:15;24.33;;;6.10;;
60917;SDS011;46792;38.854;-9.384;2023-02-15T07:04:34;26.98;;;6.55;;
60917;SDS011;46792;38.854;-9.384;2023-02-15T07:06:54;16.65;;;6.03;;
60917;SDS011;46792;38.854;-9.384;2023-02-15T07:09:13;14.52;;;5.43;;
60917;SDS011;46792;38.854;-9.384;2023-02-15T07:11:14;23.83;;;6.10;;
60917;SDS011;46792;38.854;-9.384;2023-02-15T07:13:33;21.45;;;5.72;;
60917;SDS011;46792;38.854;-9.384;2023-02-15T07:15:34;20.25;;;5.97;;
60917;SDS011;46792;38.854;-9.384;2023-02-15T07:17:35;22.35;;;6.43;;
60917;SDS011;46792;38.854;-9.384;2023-02-15T07:19:36;31.50;;;7.30;;
60917;SDS011;46792;38.854;-9.384;2023-02-15T07:21:37;24.13;;;6.22;;
60917;SDS011;46792;38.854;-9.384;2023-02-15T07:23:38;20.17;;;6.45;;
60917;SDS011;46792;38.854;-9.384;2023-02-15T07:25:39;17.98;;;6.35;;
60917;SDS011;46792;38.854;-9.384;2023-02-15T07:27:40;15.80;;;6.18;;
60917;SDS011;46792;38.854;-9.384;2023-02-15T07:29:41;21.98;;;6.55;;
60917;SDS011;46792;38.854;-9.384;2023-02-15T07:31:41;22.13;;;6.53;;
60917;SDS011;46792;38.854;-9.384;2023-02-15T07:34:00;21.60;;;6.28;;
60917;SDS011;46792;38.854;-9.384;2023-02-15T07:36:19;22.38;;;5.78;;
60917;SDS011;46792;38.854;-9.384;2023-02-15T07:38:20;11.68;;;5.47;;
60917;SDS011;46792;38.854;-9.384;2023-02-15T07:40:21;27.42;;;6.07;;
60917;SDS011;46792;38.854;-9.384;2023-02-15T07:42:23;27.17;;;6.70;;
60917;SDS011;46792;38.854;-9.384;2023-02-15T07:44:25;12.88;;;5.72;;
60917;SDS011;46792;38.854;-9.384;2023-02-15T07:46:25;21.67;;;5.47;;
60917;SDS011;46792;38.854;-9.384;2023-02-15T07:48:26;20.73;;;6.47;;
60917;SDS011;46792;38.854;-9.384;2023-02-15T07:50:45;12.13;;;5.75;;
60917;SDS011;46792;38.854;-9.384;2023-02-15T07:52:46;24.40;;;6.63;;
60917;SDS011;46792;38.854;-9.384;2023-02-15T07:54:46;17.63;;;6.15;;
60917;SDS011;46792;38.854;-9.384;2023-02-15T07:56:47;23.10;;;6.32;;
60917;SDS011;46792;38.854;-9.384;2023-02-15T07:58:48;16.17;;;5.70;;
60917;SDS011;46792;38.854;-9.384;2023-02-15T08:00:51;18.70;;;6.38;;
60917;SDS011;46792;38.854;-9.384;2023-02-15T08:02:58;18.88;;;6.00;;
60917;SDS011;46792;38.854;-9.384;2023-02-15T08:05:14;21.75;;;5.82;;
60917;SDS011;46792;38.854;-9.384;2023-02-15T08:07:17;19.15;;;6.05;;
60917;SDS011;46792;38.854;-9.384;2023-02-15T08:09:17;12.32;;;5.30;;
60917;SDS011;46792;38.854;-9.384;2023-02-15T08:11:19;14.95;;;5.90;;
60917;SDS011;46792;38.854;-9.384;2023-02-15T08:13:36;17.95;;;5.72;;
60917;SDS011;46792;38.854;-9.384;2023-02-15T08:15:53;9.57;;;5.03;;
60917;SDS011;46792;38.854;-9.384;2023-02-15T08:17:54;9.48;;;4.93;;
60917;SDS011;46792;38.854;-9.384;2023-02-15T08:19:54;24.17;;;5.45;;
60917;SDS011;46792;38.854;-9.384;2023-02-15T08:21:59;14.80;;;4.95;;
60917;SDS011;46792;38.854;-9.384;2023-02-15T08:24:01;14.80;;;5.65;;
60917;SDS011;46792;38.854;-9.384;2023-02-15T08:26:03;14.32;;;6.03;;
60917;SDS011;46792;38.854;-9.384;2023-02-15T08:28:04;9.93;;;4.85;;
60917;SDS011;46792;38.854;-9.384;2023-02-15T08:30:05;16.10;;;5.40;;
60917;SDS011;46792;38.854;-9.384;2023-02-15T08:32:08;27.17;;;5.55;;
60917;SDS011;46792;38.854;-9.384;2023-02-15T08:34:11;21.80;;;6.03;;
60917;SDS011;46792;38.854;-9.384;2023-02-15T08:36:17;11.98;;;5.82;;
60917;SDS011;46792;38.854;-9.384;2023-02-15T08:38:19;24.45;;;6.18;;
60917;SDS011;46792;38.854;-9.384;2023-02-15T08:40:20;21.77;;;6.30;;
60917;SDS011;46792;38.854;-9.384;2023-02-15T08:42:21;22.92;;;6.22;;
60917;SDS011;46792;38.854;-9.384;2023-02-15T08:44:22;24.15;;;6.13;;
60917;SDS011;46792;38.854;-9.384;2023-02-15T08:46:23;19.70;;;5.65;;
60917;SDS011;46792;38.854;-9.384;2023-02-15T08:48:26;20.63;;;6.53;;
60917;SDS011;46792;38.854;-9.384;2023-02-15T08:50:26;22.20;;;6.03;;
60917;SDS011;46792;38.854;-9.384;2023-02-15T08:52:27;17.88;;;6.68;;
60917;SDS011;46792;38.854;-9.384;2023-02-15T08:54:28;17.60;;;6.22;;
60917;SDS011;46792;38.854;-9.384;2023-02-15T08:56:31;23.17;;;5.78;;
60917;SDS011;46792;38.854;-9.384;2023-02-15T08:58:34;21.10;;;5.65;;
60917;SDS011;46792;38.854;-9.384;2023-02-15T09:00:35;22.83;;;5.72;;
60917;SDS011;46792;38.854;-9.384;2023-02-15T09:02:36;25.38;;;7.68;;
60917;SDS011;46792;38.854;-9.384;2023-02-15T09:04:37;25.67;;;6.50;;
60917;SDS011;46792;38.854;-9.384;2023-02-15T09:06:38;22.88;;;7.68;;
60917;SDS011;46792;38.854;-9.384;2023-02-15T09:08:40;37.55;;;7.05;;
60917;SDS011;46792;38.854;-9.384;2023-02-15T09:13:17;12.23;;;5.75;;
60917;SDS011;46792;38.854;-9.384;2023-02-15T09:15:19;23.98;;;7.05;;
60917;SDS011;46792;38.854;-9.384;2023-02-15T09:17:20;36.58;;;6.50;;
60917;SDS011;46792;38.854;-9.384;2023-02-15T09:21:27;35.95;;;7.05;;
60917;SDS011;46792;38.854;-9.384;2023-02-15T09:23:29;24.70;;;5.45;;
60917;SDS011;46792;38.854;-9.384;2023-02-15T09:25:30;26.00;;;5.68;;
60917;SDS011;46792;38.854;-9.384;2023-02-15T09:27:31;28.73;;;5.93;;
60917;SDS011;46792;38.854;-9.384;2023-02-15T09:29:32;19.13;;;5.57;;
60917;SDS011;46792;38.854;-9.384;2023-02-15T09:31:36;18.83;;;5.38;;
60917;SDS011;46792;38.854;-9.384;2023-02-15T09:33:39;20.52;;;6.45;;
60917;SDS011;46792;38.854;-9.384;2023-02-15T09:35:41;14.63;;;5.63;;
60917;SDS011;46792;38.854;-9.384;2023-02-15T09:37:42;18.10;;;5.70;;
60917;SDS011;46792;38.854;-9.384;2023-02-15T09:39:42;17.02;;;5.95;;
60917;SDS011;46792;38.854;-9.384;2023-02-15T09:46:49;9.65;;;5.40;;
60917;SDS011;46792;38.854;-9.384;2023-02-15T09:48:52;18.10;;;5.45;;
60917;SDS011;46792;38.854;-9.384;2023-02-15T10:00:49;15.00;;;6.07;;
60917;SDS011;46792;38.854;-9.384;2023-02-15T10:07:47;10.50;;;4.75;;
60917;SDS011;46792;38.854;-9.384;2023-02-15T10:22:18;9.73;;;4.97;;
60917;SDS011;46792;38.854;-9.384;2023-02-15T10:26:49;16.17;;;4.93;;
60917;SDS011;46792;38.854;-9.384;2023-02-15T10:31:10;11.50;;;4.95;;
60917;SDS011;46792;38.854;-9.384;2023-02-15T10:42:29;20.10;;;4.97;;
60917;SDS011;46792;38.854;-9.384;2023-02-15T10:47:16;9.25;;;4.15;;
60917;SDS011;46792;38.854;-9.384;2023-02-15T10:56:39;15.05;;;6.13;;
60917;SDS011;46792;38.854;-9.384;2023-02-15T11:01:26;14.77;;;4.53;;
60917;SDS011;46792;38.854;-9.384;2023-02-15T11:06:17;6.70;;;4.07;;
60917;SDS011;46792;38.854;-9.384;2023-02-15T11:08:20;15.90;;;5.70;;
60917;SDS011;46792;38.854;-9.384;2023-02-15T11:10:35;16.67;;;6.82;;
60917;SDS011;46792;38.854;-9.384;2023-02-15T11:12:36;20.33;;;5.55;;
60917;SDS011;46792;38.854;-9.384;2023-02-15T11:16:51;19.15;;;4.85;;
60917;SDS011;46792;38.854;-9.384;2023-02-15T11:18:57;12.98;;;4.82;;
60917;SDS011;46792;38.854;-9.384;2023-02-15T11:21:33;33.05;;;5.57;;
60917;SDS011;46792;38.854;-9.384;2023-02-15T11:23:41;16.42;;;5.00;;
60917;SDS011;46792;38.854;-9.384;2023-02-15T11:25:52;17.90;;;6.85;;
60917;SDS011;46792;38.854;-9.384;2023-02-15T11:28:00;14.20;;;5.60;;
60917;SDS011;46792;38.854;-9.384;2023-02-15T11:30:10;22.02;;;6.07;;
60917;SDS011;46792;38.854;-9.384;2023-02-15T11:32:18;12.30;;;5.45;;
60917;SDS011;46792;38.854;-9.384;2023-02-15T11:34:29;16.70;;;5.60;;
60917;SDS011;46792;38.854;-9.384;2023-02-15T11:36:53;12.20;;;4.75;;
60917;SDS011;46792;38.854;-9.384;2023-02-15T11:39:01;11.77;;;4.60;;
60917;SDS011;46792;38.854;-9.384;2023-02-15T11:41:14;11.35;;;4.57;;
60917;SDS011;46792;38.854;-9.384;2023-02-15T11:44:05;16.80;;;5.85;;
60917;SDS011;46792;38.854;-9.384;2023-02-15T11:46:05;21.55;;;5.05;;
60917;SDS011;46792;38.854;-9.384;2023-02-15T11:48:11;14.77;;;5.55;;
60917;SDS011;46792;38.854;-9.384;2023-02-15T11:50:14;11.63;;;5.18;;
60917;SDS011;46792;38.854;-9.384;2023-02-15T11:52:18;15.23;;;4.50;;
60917;SDS011;46792;38.854;-9.384;2023-02-15T11:54:20;17.27;;;4.75;;
60917;SDS011;46792;38.854;-9.384;2023-02-15T11:56:30;10.85;;;4.65;;
60917;SDS011;46792;38.854;-9.384;2023-02-15T11:58:36;10.15;;;4.68;;
60917;SDS011;46792;38.854;-9.384;2023-02-15T12:00:48;27.17;;;4.80;;
60917;SDS011;46792;38.854;-9.384;2023-02-15T12:02:53;13.80;;;4.95;;
60917;SDS011;46792;38.854;-9.384;2023-02-15T12:05:03;13.60;;;4.50;;
60917;SDS011;46792;38.854;-9.384;2023-02-15T12:07:13;7.25;;;4.93;;
60917;SDS011;46792;38.854;-9.384;2023-02-15T12:11:38;27.52;;;6.65;;
60917;SDS011;46792;38.854;-9.384;2023-02-15T12:13:56;13.90;;;4.60;;
60917;SDS011;46792;38.854;-9.384;2023-02-15T12:16:04;10.73;;;4.10;;
60917;SDS011;46792;38.854;-9.384;2023-02-15T12:18:17;11.63;;;4.85;;
60917;SDS011;46792;38.854;-9.384;2023-02-15T12:20:31;10.00;;;4.65;;
60917;SDS011;46792;38.854;-9.384;2023-02-15T12:22:34;11.35;;;4.47;;
60917;SDS011;46792;38.854;-9.384;2023-02-15T12:24:38;15.98;;;4.60;;
60917;SDS011;46792;38.854;-9.384;2023-02-15T12:26:55;16.10;;;4.75;;
60917;SDS011;46792;38.854;-9.384;2023-02-15T12:29:25;17.00;;;4.55;;
60917;SDS011;46792;38.854;-9.384;2023-02-15T12:33:41;14.15;;;4.97;;
60917;SDS011;46792;38.854;-9.384;2023-02-15T12:35:45;16.05;;;5.78;;
60917;SDS011;46792;38.854;-9.384;2023-02-15T12:38:04;23.33;;;4.80;;
60917;SDS011;46792;38.854;-9.384;2023-02-15T12:40:25;15.52;;;4.45;;
60917;SDS011;46792;38.854;-9.384;2023-02-15T12:42:40;11.40;;;4.63;;
60917;SDS011;46792;38.854;-9.384;2023-02-15T12:45:26;7.68;;;4.22;;
60917;SDS011;46792;38.854;-9.384;2023-02-15T12:47:28;14.95;;;4.93;;
60917;SDS011;46792;38.854;-9.384;2023-02-15T12:49:34;13.07;;;4.18;;
60917;SDS011;46792;38.854;-9.384;2023-02-15T12:51:48;8.27;;;3.45;;
60917;SDS011;46792;38.854;-9.384;2023-02-15T12:53:51;10.75;;;4.38;;
60917;SDS011;46792;38.854;-9.384;2023-02-15T13:00:25;17.08;;;3.90;;
60917;SDS011;46792;38.854;-9.384;2023-02-15T13:02:36;12.15;;;4.03;;
60917;SDS011;46792;38.854;-9.384;2023-02-15T13:04:47;11.70;;;4.75;;
60917;SDS011;46792;38.854;-9.384;2023-02-15T13:06:50;17.40;;;3.88;;
60917;SDS011;46792;38.854;-9.384;2023-02-15T13:09:05;14.93;;;4.00;;
60917;SDS011;46792;38.854;-9.384;2023-02-15T13:11:41;14.00;;;4.30;;
60917;SDS011;46792;38.854;-9.384;2023-02-15T13:13:51;8.80;;;3.80;;
60917;SDS011;46792;38.854;-9.384;2023-02-15T13:15:56;14.85;;;4.75;;
60917;SDS011;46792;38.854;-9.384;2023-02-15T13:18:04;10.90;;;4.10;;
60917;SDS011;46792;38.854;-9.384;2023-02-15T13:20:16;10.70;;;4.43;;
60917;SDS011;46792;38.854;-9.384;2023-02-15T13:22:32;11.43;;;3.80;;
60917;SDS011;46792;38.854;-9.384;2023-02-15T13:24:50;17.05;;;5.00;;
60917;SDS011;46792;38.854;-9.384;2023-02-15T13:26:55;12.20;;;3.75;;
60917;SDS011;46792;38.854;-9.384;2023-02-15T13:29:03;16.98;;;4.47;;
60917;SDS011;46792;38.854;-9.384;2023-02-15T13:31:12;13.95;;;3.75;;
60917;SDS011;46792;38.854;-9.384;2023-02-15T13:35:41;17.10;;;4.03;;
60917;SDS011;46792;38.854;-9.384;2023-02-15T13:42:19;17.73;;;3.78;;
60917;SDS011;46792;38.854;-9.384;2023-02-15T13:44:29;15.57;;;4.07;;
60917;SDS011;46792;38.854;-9.384;2023-02-15T13:47:02;15.68;;;3.65;;
60917;SDS011;46792;38.854;-9.384;2023-02-15T13:49:52;20.75;;;3.70;;
60917;SDS011;46792;38.854;-9.384;2023-02-15T14:01:15;17.13;;;3.88;;
60917;SDS011;46792;38.854;-9.384;2023-02-15T14:11:10;8.10;;;3.38;;
60917;SDS011;46792;38.854;-9.384;2023-02-15T14:20:15;12.10;;;3.30;;
60917;SDS011;46792;38.854;-9.384;2023-02-15T14:24:42;11.32;;;3.15;;
60917;SDS011;46792;38.854;-9.384;2023-02-15T14:31:43;16.48;;;3.40;;
60917;SDS011;46792;38.854;-9.384;2023-02-15T14:33:53;18.90;;;3.13;;
60917;SDS011;46792;38.854;-9.384;2023-02-15T14:35:56;11.95;;;4.07;;
60917;SDS011;46792;38.854;-9.384;2023-02-15T14:42:51;14.88;;;4.25;;
60917;SDS011;46792;38.854;-9.384;2023-02-15T14:45:00;17.38;;;3.65;;
60917;SDS011;46792;38.854;-9.384;2023-02-15T14:47:11;11.95;;;3.83;;
60917;SDS011;46792;38.854;-9.384;2023-02-15T14:49:25;13.48;;;3.30;;
60917;SDS011;46792;38.854;-9.384;2023-02-15T14:53:47;11.00;;;3.50;;
60917;SDS011;46792;38.854;-9.384;2023-02-15T14:55:59;19.60;;;3.13;;
60917;SDS011;46792;38.854;-9.384;2023-02-15T14:58:25;10.82;;;3.60;;
60917;SDS011;46792;38.854;-9.384;2023-02-15T15:00:30;17.17;;;3.65;;
60917;SDS011;46792;38.854;-9.384;2023-02-15T15:04:40;23.48;;;3.88;;
60917;SDS011;46792;38.854;-9.384;2023-02-15T15:06:59;11.40;;;3.42;;